This is the latest recevied weather packets stored in our database for station/object W4FXD. If no packets are shown the sender has not sent any weather packets the latest 10 day(s).
| Time | Temp. | Humidity | Pressure | Rain* | Wind** | Luminosity | Snow |
|---|---|---|---|---|---|---|---|
| 1778164417 | 11.67° C | 96% | 1013.8 hPa | 0 mm | - | 116 W/m² | - |
| 1778164113 | 12.22° C | 96% | 1013.9 hPa | 0 mm | - | 95 W/m² | - |
| 1778163810 | 12.22° C | 96% | 1014 hPa | 0 mm | - | 72 W/m² | - |
| 1778163506 | 12.22° C | 95% | 1013.6 hPa | 0 mm | - | 73 W/m² | - |
| 1778163203 | 12.22° C | 95% | 1013.7 hPa | 0 mm | - | 72 W/m² | - |
| 1778162900 | 12.22° C | 96% | 1013.6 hPa | 0 mm | - | 62 W/m² | - |
| 1778162596 | 12.22° C | 96% | 1013.6 hPa | 0 mm | - | 56 W/m² | - |
| 1778162295 | 12.22° C | 95% | 1013.9 hPa | 0 mm | - | 55 W/m² | - |
| 1778161991 | 12.22° C | 96% | 1013.4 hPa | 0 mm | - | 85 W/m² | - |
| 1778161688 | 12.22° C | 95% | 1013.5 hPa | 0 mm | - | 69 W/m² | - |
| 1778161384 | 12.22° C | 96% | 1013.6 hPa | 0 mm | - | 69 W/m² | - |
| 1778161080 | 12.22° C | 95% | 1013.6 hPa | 0 mm | - | 56 W/m² | - |
| 1778160776 | 12.22° C | 96% | 1013.4 hPa | 0 mm | - | 72 W/m² | - |
| 1778160474 | 12.22° C | 96% | 1013.4 hPa | 0 mm | - | 74 W/m² | - |
| 1778160171 | 12.22° C | 96% | 1013.3 hPa | 0 mm | - | 74 W/m² | - |
| 1778159868 | 12.22° C | 97% | 1013.5 hPa | 0 mm | - | 65 W/m² | - |
| 1778159565 | 12.22° C | 97% | 1013.5 hPa | 0 mm | - | 56 W/m² | - |
| 1778159261 | 12.22° C | 97% | 1013.5 hPa | 0 mm | - | 58 W/m² | - |
| 1778158959 | 12.22° C | 98% | 1013.6 hPa | 0 mm | - | 67 W/m² | - |
| 1778158658 | 12.22° C | 98% | 1013.6 hPa | 0 mm | - | 51 W/m² | - |
| 1778158355 | 12.22° C | 98% | 1013.5 hPa | 0 mm | - | 49 W/m² | - |
| 1778158052 | 12.22° C | 98% | 1013.5 hPa | 0 mm | - | 56 W/m² | - |
| 1778157748 | 11.67° C | 99% | 1013.5 hPa | 0 mm | - | 43 W/m² | - |
| 1778157447 | 12.22° C | 99% | 1013.3 hPa | 0 mm | - | 45 W/m² | - |
| 1778157144 | 11.67° C | 99% | 1013.5 hPa | 0 mm | - | 48 W/m² | - |
* Rain latest hour (hover to see other rain measurements)
** Current wind speed in m/s (hover to see current wind gust speed)